createdAt,value
2018-07-23T00:02:12.260Z,5.20
2018-07-23T00:04:42.106Z,4.70
2018-07-23T00:07:12.093Z,5.50
2018-07-23T00:09:42.108Z,4.87
2018-07-23T00:12:11.998Z,4.97
2018-07-23T00:14:42.076Z,5.13
2018-07-23T00:17:12.414Z,4.97
2018-07-23T00:19:42.455Z,5.13
2018-07-23T00:22:12.280Z,4.60
2018-07-23T00:24:42.499Z,5.83
2018-07-23T00:27:12.404Z,5.50
2018-07-23T00:29:42.515Z,5.70
2018-07-23T00:32:12.627Z,5.37
2018-07-23T00:34:42.599Z,5.00
2018-07-23T00:37:12.628Z,5.53
2018-07-23T00:39:42.464Z,5.67
2018-07-23T00:42:12.570Z,5.83
2018-07-23T00:44:42.584Z,5.30
2018-07-23T00:47:12.443Z,5.90
2018-07-23T00:49:42.660Z,5.90
2018-07-23T00:52:12.588Z,5.20
2018-07-23T00:54:42.713Z,5.53
2018-07-23T00:57:12.621Z,6.00
2018-07-23T00:59:42.561Z,6.00
2018-07-23T01:02:12.692Z,5.70
2018-07-23T01:04:42.651Z,5.73
2018-07-23T01:07:12.734Z,5.97
2018-07-23T01:09:42.876Z,5.77
2018-07-23T01:12:13.186Z,5.97
2018-07-23T01:14:43.526Z,5.80
2018-07-23T01:17:13.595Z,6.10
2018-07-23T01:19:43.491Z,5.23
2018-07-23T01:22:13.638Z,5.93
2018-07-23T01:24:44.023Z,5.57
2018-07-23T01:27:14.198Z,6.00
2018-07-23T01:29:44.304Z,5.50
2018-07-23T01:32:14.452Z,5.73
2018-07-23T01:34:44.577Z,5.87
2018-07-23T01:37:14.657Z,5.70
2018-07-23T01:39:45.412Z,5.67
2018-07-23T01:42:15.386Z,5.63
2018-07-23T01:44:45.403Z,5.30
2018-07-23T01:47:15.659Z,5.50
2018-07-23T01:49:45.652Z,6.00
2018-07-23T01:52:15.599Z,5.27
2018-07-23T01:54:45.676Z,5.33
2018-07-23T01:57:15.633Z,4.87
2018-07-23T01:59:45.484Z,5.30
2018-07-23T02:02:25.376Z,5.27
2018-07-23T02:04:55.502Z,5.53
2018-07-23T02:07:25.474Z,5.53
2018-07-23T02:09:55.497Z,4.73
2018-07-23T02:12:25.536Z,4.77
2018-07-23T02:14:55.572Z,4.70
2018-07-23T02:17:25.595Z,4.53
2018-07-23T02:19:55.527Z,4.33
2018-07-23T02:22:25.492Z,4.27
2018-07-23T02:24:55.560Z,4.10
2018-07-23T02:27:25.460Z,3.70
2018-07-23T02:29:55.396Z,3.70
2018-07-23T02:32:25.467Z,3.90
2018-07-23T02:34:56.592Z,4.00
2018-07-23T02:37:26.583Z,3.70
2018-07-23T02:39:56.611Z,4.30
2018-07-23T02:42:26.610Z,4.10
2018-07-23T02:44:56.647Z,4.70
2018-07-23T02:47:26.554Z,4.10
2018-07-23T02:49:56.576Z,4.80
2018-07-23T02:52:26.874Z,4.43
2018-07-23T02:54:57.818Z,3.40
2018-07-23T02:57:28.559Z,1.80
2018-07-23T03:00:08.260Z,1.33
2018-07-23T03:02:48.947Z,1.20
2018-07-23T03:05:20.298Z,1.83
2018-07-23T03:07:55.501Z,2.67
2018-07-23T03:10:38.795Z,2.97
2018-07-23T03:13:18.586Z,3.57
2018-07-23T03:15:57.025Z,4.13
2018-07-23T03:18:39.119Z,3.90
2018-07-23T03:21:26.268Z,4.00
2018-07-23T03:24:02.103Z,4.17
2018-07-23T03:26:33.083Z,3.80
2018-07-23T03:29:13.530Z,3.83
2018-07-23T03:35:05.225Z,4.07
2018-07-23T03:37:35.722Z,4.10
2018-07-23T03:40:07.795Z,4.17
2018-07-23T03:42:37.853Z,3.60
2018-07-23T03:45:08.635Z,3.70
2018-07-23T03:47:39.678Z,3.60
2018-07-23T03:50:16.296Z,3.30
2018-07-23T03:52:47.098Z,3.13
2018-07-23T03:55:18.457Z,2.87
2018-07-23T03:57:48.757Z,3.13
2018-07-23T04:00:18.971Z,3.00
2018-07-23T04:02:49.766Z,3.23
2018-07-23T04:05:20.632Z,3.20
2018-07-23T04:07:51.542Z,3.20
2018-07-23T04:10:22.330Z,4.30
2018-07-23T04:12:52.482Z,4.27
2018-07-23T04:15:22.540Z,4.53
2018-07-23T04:18:03.281Z,4.23
2018-07-23T04:20:35.945Z,4.27
2018-07-23T04:23:07.561Z,4.00
2018-07-23T04:25:37.880Z,3.90
2018-07-23T04:28:11.555Z,4.40
2018-07-23T04:30:47.371Z,4.20
2018-07-23T04:36:45.668Z,3.90
2018-07-23T04:39:15.904Z,4.30
2018-07-23T04:41:46.604Z,4.17
2018-07-23T04:44:16.993Z,4.10
2018-07-23T04:46:48.405Z,5.10
2018-07-23T04:49:18.696Z,4.60
2018-07-23T04:51:49.116Z,5.10
2018-07-23T04:54:19.432Z,6.07
2018-07-23T04:56:50.014Z,5.63
2018-07-23T04:59:20.316Z,5.83
2018-07-23T05:01:50.662Z,6.17
2018-07-23T05:04:20.688Z,6.40
2018-07-23T05:06:51.866Z,6.23
2018-07-23T05:09:23.203Z,5.90
2018-07-23T05:11:53.506Z,5.97
2018-07-23T05:14:23.887Z,6.17
2018-07-23T05:16:54.200Z,6.10
2018-07-23T05:19:24.972Z,5.87
2018-07-23T05:22:09.364Z,6.03
2018-07-23T05:24:40.225Z,6.30
2018-07-23T05:27:10.894Z,6.20
2018-07-23T05:29:41.259Z,6.50
2018-07-23T05:32:11.995Z,5.73
2018-07-23T05:34:42.435Z,7.00
2018-07-23T05:37:12.693Z,6.50
2018-07-23T05:39:42.966Z,5.87
2018-07-23T05:42:13.378Z,6.13
2018-07-23T05:44:43.944Z,5.73
2018-07-23T05:47:14.109Z,6.43
2018-07-23T05:49:44.892Z,5.83
2018-07-23T05:52:15.136Z,6.07
2018-07-23T05:54:45.043Z,6.07
2018-07-23T05:57:15.244Z,6.07
2018-07-23T05:59:45.392Z,6.00
2018-07-23T06:02:15.805Z,6.27
2018-07-23T06:04:46.143Z,5.93
2018-07-23T06:07:16.452Z,5.70
2018-07-23T06:09:46.776Z,5.60
2018-07-23T06:12:17.182Z,5.40
2018-07-23T06:14:47.437Z,5.77
2018-07-23T06:17:17.753Z,5.27
2018-07-23T06:19:48.877Z,4.70
2018-07-23T06:22:24.091Z,6.23
2018-07-23T06:24:54.590Z,6.03
2018-07-23T06:27:24.883Z,4.83
2018-07-23T06:29:56.274Z,5.30
2018-07-23T06:32:26.600Z,5.73
2018-07-23T06:34:59.720Z,6.60
2018-07-23T06:37:35.780Z,5.20
2018-07-23T06:40:31.002Z,5.50
2018-07-23T06:43:01.900Z,6.07
2018-07-23T06:45:33.155Z,5.50
2018-07-23T06:48:19.890Z,5.77
2018-07-23T06:50:51.434Z,5.33
2018-07-23T06:53:21.962Z,5.23
2018-07-23T06:55:52.631Z,5.43
2018-07-23T06:58:22.732Z,4.70
2018-07-23T07:00:53.365Z,4.80
2018-07-23T07:03:24.937Z,4.80
2018-07-23T07:05:56.641Z,5.33
2018-07-23T07:08:26.928Z,5.17
2018-07-23T07:10:57.191Z,5.20
2018-07-23T07:13:30.076Z,5.53
2018-07-23T07:16:00.055Z,5.20
2018-07-23T07:18:30.118Z,5.90
2018-07-23T07:21:00.771Z,5.30
2018-07-23T07:26:42.138Z,6.13
2018-07-23T07:29:13.975Z,6.20
2018-07-23T07:31:43.953Z,5.90
2018-07-23T07:34:13.910Z,8.43
2018-07-23T07:36:43.916Z,5.23
2018-07-23T07:39:14.220Z,6.03
2018-07-23T07:41:44.783Z,6.07
2018-07-23T07:44:16.061Z,5.47
2018-07-23T07:46:46.213Z,6.60
2018-07-23T07:49:16.244Z,6.63
2018-07-23T07:51:46.268Z,6.47
2018-07-23T07:54:16.419Z,6.27
2018-07-23T07:56:46.368Z,6.37
2018-07-23T07:59:16.386Z,6.47
2018-07-23T08:01:46.350Z,6.00
2018-07-23T08:04:16.511Z,5.97
2018-07-23T08:07:24.407Z,5.83
2018-07-23T08:09:54.395Z,6.47
2018-07-23T08:12:25.294Z,5.77
2018-07-23T08:14:55.385Z,5.40
2018-07-23T08:17:25.526Z,5.83
2018-07-23T08:19:55.757Z,5.37
2018-07-23T08:22:25.933Z,5.60
2018-07-23T08:24:56.086Z,5.37
2018-07-23T08:27:26.172Z,5.07
2018-07-23T08:29:56.238Z,5.17
2018-07-23T08:32:26.320Z,4.67
2018-07-23T08:34:56.355Z,4.87
2018-07-23T08:37:26.302Z,4.60
2018-07-23T08:39:56.343Z,4.43
2018-07-23T08:42:26.305Z,4.60
2018-07-23T08:44:56.521Z,4.20
2018-07-23T08:47:26.608Z,4.37
2018-07-23T08:49:56.860Z,3.70
2018-07-23T08:52:26.951Z,3.20
2018-07-23T08:54:57.053Z,3.70
2018-07-23T08:57:27.097Z,2.40
2018-07-23T08:59:57.137Z,3.10
2018-07-23T09:02:27.335Z,2.57
2018-07-23T09:04:57.573Z,3.40
2018-07-23T09:07:27.900Z,3.40
2018-07-23T09:09:58.180Z,2.70
2018-07-23T09:12:28.448Z,2.97
2018-07-23T09:14:58.697Z,2.50
2018-07-23T09:17:28.727Z,2.53
2018-07-23T09:19:58.720Z,2.53
2018-07-23T09:22:28.823Z,2.63
2018-07-23T09:24:58.939Z,2.20
2018-07-23T09:27:28.869Z,1.90
2018-07-23T09:29:58.804Z,2.20
2018-07-23T09:32:28.692Z,1.67
2018-07-23T09:34:58.740Z,1.60
2018-07-23T09:37:28.740Z,1.23
2018-07-23T09:39:58.660Z,2.37
2018-07-23T09:42:29.500Z,1.40
2018-07-23T09:44:59.667Z,1.30
2018-07-23T09:47:29.627Z,1.50
2018-07-23T09:49:59.590Z,1.70
2018-07-23T09:52:29.495Z,1.50
2018-07-23T09:55:00.442Z,1.53
2018-07-23T09:57:31.437Z,1.33
2018-07-23T10:00:02.185Z,1.40
2018-07-23T10:02:32.346Z,1.40
2018-07-23T10:05:08.013Z,1.10
2018-07-23T10:07:38.405Z,0.90
2018-07-23T10:10:09.668Z,0.80
2018-07-23T10:12:39.742Z,1.30
2018-07-23T10:15:10.493Z,1.10
2018-07-23T10:17:40.344Z,1.00
2018-07-23T10:20:10.573Z,0.90
2018-07-23T10:22:41.564Z,0.80
2018-07-23T10:25:15.545Z,0.70
2018-07-23T10:27:50.066Z,0.90
2018-07-23T10:30:26.411Z,0.70
2018-07-23T10:32:57.720Z,0.83
2018-07-23T10:35:27.855Z,0.80
2018-07-23T10:37:58.097Z,1.10
2018-07-23T10:40:28.756Z,1.40
2018-07-23T10:42:59.333Z,1.30
2018-07-23T10:45:32.321Z,1.27
2018-07-23T10:48:06.759Z,1.67
2018-07-23T10:50:36.792Z,1.40
2018-07-23T10:53:22.401Z,1.20
2018-07-23T10:55:52.636Z,1.70
2018-07-23T10:58:25.439Z,1.40
2018-07-23T11:00:55.526Z,1.63
2018-07-23T11:03:26.536Z,1.40
2018-07-23T11:05:59.440Z,1.50
2018-07-23T11:08:30.671Z,1.30
2018-07-23T11:11:00.819Z,1.40
2018-07-23T11:13:31.037Z,1.53
2018-07-23T11:16:03.269Z,1.50
2018-07-23T11:18:33.396Z,1.90
2018-07-23T11:21:03.478Z,1.93
2018-07-23T11:23:33.565Z,2.00
2018-07-23T11:26:03.696Z,2.20
2018-07-23T11:28:33.670Z,2.23
2018-07-23T11:31:03.921Z,3.70
2018-07-23T11:33:33.891Z,3.60
2018-07-23T11:36:04.061Z,3.90
2018-07-23T11:38:34.037Z,4.07
2018-07-23T11:41:04.228Z,4.57
2018-07-23T11:43:35.027Z,3.63
2018-07-23T11:46:05.839Z,5.13
2018-07-23T11:48:36.118Z,5.17
2018-07-23T11:51:06.713Z,5.27
2018-07-23T11:53:36.726Z,4.93
2018-07-23T11:56:08.051Z,5.00
2018-07-23T11:58:38.338Z,4.43
2018-07-23T12:01:09.438Z,3.40
2018-07-23T12:03:39.511Z,4.40
2018-07-23T12:06:10.505Z,4.30
2018-07-23T12:08:40.562Z,4.23
2018-07-23T12:11:10.961Z,3.80
2018-07-23T12:13:40.853Z,4.40
2018-07-23T12:16:11.062Z,4.57
2018-07-23T12:18:41.069Z,3.40
2018-07-23T12:21:11.303Z,4.07
2018-07-23T12:23:41.541Z,4.47
2018-07-23T12:26:11.785Z,3.83
2018-07-23T12:28:41.773Z,4.57
2018-07-23T12:31:11.746Z,4.40
2018-07-23T12:33:41.760Z,3.63
2018-07-23T12:36:11.886Z,4.57
2018-07-23T12:38:41.964Z,4.47
2018-07-23T12:41:12.224Z,4.60
2018-07-23T12:43:42.984Z,3.03
2018-07-23T12:46:13.004Z,3.83
2018-07-23T12:48:43.273Z,3.73
2018-07-23T12:51:13.806Z,4.17
2018-07-23T12:53:45.250Z,4.13
2018-07-23T12:56:15.416Z,4.30
2018-07-23T12:58:50.256Z,5.10
2018-07-23T13:01:20.621Z,3.43
2018-07-23T13:03:50.639Z,4.33
2018-07-23T13:06:20.916Z,4.43
2018-07-23T13:08:51.233Z,5.27
2018-07-23T13:32:33.476Z,5.03
2018-07-23T13:35:07.924Z,4.90
2018-07-23T13:37:38.883Z,5.07
2018-07-23T13:40:17.932Z,4.97
2018-07-23T13:42:52.313Z,5.10
2018-07-23T13:45:23.808Z,4.73
2018-07-23T13:47:54.252Z,5.10
2018-07-23T13:50:26.216Z,4.90
2018-07-23T13:52:56.532Z,3.90
2018-07-23T13:55:28.747Z,3.80
2018-07-23T13:57:59.857Z,4.43
2018-07-23T14:00:29.892Z,4.40
2018-07-23T14:03:00.176Z,4.00
2018-07-23T14:05:30.203Z,4.60
2018-07-23T14:08:00.236Z,4.40
2018-07-23T14:10:31.999Z,4.30
2018-07-23T14:13:02.095Z,5.30
2018-07-23T14:15:32.200Z,4.40
2018-07-23T14:18:02.173Z,4.20
2018-07-23T14:20:32.172Z,3.67
2018-07-23T14:23:08.453Z,3.97
2018-07-23T14:25:38.482Z,3.73
2018-07-23T14:28:09.240Z,4.10
2018-07-23T14:30:39.313Z,4.17
2018-07-23T14:33:10.047Z,3.77
2018-07-23T14:35:40.093Z,4.00
2018-07-23T14:38:11.365Z,4.40
2018-07-23T14:40:41.293Z,4.40
2018-07-23T14:43:11.376Z,3.77
2018-07-23T14:45:41.321Z,4.30
2018-07-23T14:48:11.288Z,4.67
2018-07-23T14:50:41.248Z,4.20
2018-07-23T14:53:11.114Z,4.30
2018-07-23T14:55:41.051Z,4.70
2018-07-23T14:58:11.049Z,3.53
2018-07-23T15:00:41.128Z,3.57
2018-07-23T15:03:11.126Z,4.17
2018-07-23T15:05:41.001Z,4.30
2018-07-23T15:08:11.246Z,4.33
2018-07-23T15:10:50.604Z,4.87
2018-07-23T15:13:30.972Z,5.40
2018-07-23T15:16:00.907Z,5.30
2018-07-23T15:18:30.923Z,4.70
2018-07-23T15:21:00.760Z,4.33
2018-07-23T15:23:30.674Z,5.37
2018-07-23T15:26:00.802Z,5.00
2018-07-23T15:28:30.772Z,5.27
2018-07-23T15:31:00.811Z,5.00
2018-07-23T15:33:30.860Z,5.37
2018-07-23T15:36:00.696Z,5.10
2018-07-23T15:38:31.466Z,5.27
2018-07-23T15:47:32.961Z,5.47
2018-07-23T15:50:24.838Z,4.27
2018-07-23T15:52:56.933Z,4.83
2018-07-23T15:55:27.057Z,5.10
2018-07-23T15:57:56.915Z,4.97
2018-07-23T16:00:28.173Z,4.80
2018-07-23T16:03:05.880Z,4.50
2018-07-23T16:05:36.745Z,4.80
2018-07-23T16:08:06.887Z,5.30
2018-07-23T16:10:39.240Z,5.27
2018-07-23T16:13:09.841Z,5.57
2018-07-23T16:15:39.714Z,5.07
2018-07-23T16:18:12.017Z,5.30
2018-07-23T16:20:42.261Z,5.37
2018-07-23T16:23:12.218Z,5.50
2018-07-23T16:25:42.869Z,6.20
2018-07-23T16:28:14.099Z,4.70
2018-07-23T16:30:45.428Z,4.73
2018-07-23T16:33:24.048Z,4.90
2018-07-23T16:36:05.728Z,5.83
2018-07-23T16:38:44.990Z,5.37
2018-07-23T16:41:25.112Z,4.97
2018-07-23T16:43:55.749Z,4.60
2018-07-23T16:46:26.222Z,5.60
2018-07-23T16:48:56.233Z,5.70
2018-07-23T16:51:26.256Z,5.97
2018-07-23T16:53:56.248Z,5.10
2018-07-23T16:56:26.386Z,6.27
2018-07-23T16:58:56.498Z,5.20
2018-07-23T17:01:26.529Z,5.87
2018-07-23T17:04:05.706Z,5.73
2018-07-23T17:06:36.884Z,5.97
2018-07-23T17:09:11.242Z,6.00
2018-07-23T17:11:41.383Z,5.63
2018-07-23T17:14:11.414Z,5.50
2018-07-23T17:16:41.342Z,5.47
2018-07-23T17:19:11.306Z,5.53
2018-07-23T17:21:51.042Z,6.07
2018-07-23T17:24:22.153Z,5.47
2018-07-23T17:26:52.008Z,5.63
2018-07-23T17:29:21.856Z,6.03
2018-07-23T17:31:51.993Z,6.20
2018-07-23T17:34:22.234Z,5.90
2018-07-23T17:36:52.416Z,5.90
2018-07-23T17:39:22.459Z,6.80
2018-07-23T17:41:52.443Z,5.67
2018-07-23T17:44:23.154Z,6.00
2018-07-23T17:46:53.153Z,6.40
2018-07-23T17:49:23.176Z,6.77
2018-07-23T17:51:53.226Z,6.27
2018-07-23T17:54:23.316Z,6.40
2018-07-23T17:56:53.259Z,6.33
2018-07-23T17:59:23.123Z,5.87
2018-07-23T18:01:53.011Z,5.80
2018-07-23T18:04:24.980Z,5.77
2018-07-23T18:06:54.912Z,6.00
2018-07-23T18:09:24.903Z,5.60
2018-07-23T18:11:54.951Z,5.70
2018-07-23T18:14:24.949Z,6.27
2018-07-23T18:16:54.817Z,6.27
2018-07-23T18:19:24.854Z,5.80
2018-07-23T18:21:54.862Z,5.90
2018-07-23T18:24:24.822Z,5.57
2018-07-23T18:26:54.892Z,6.20
2018-07-23T18:29:25.206Z,6.30
2018-07-23T18:31:55.525Z,6.03
2018-07-23T18:34:26.333Z,6.67
2018-07-23T18:36:56.871Z,5.90
2018-07-23T18:39:26.793Z,6.50
2018-07-23T18:46:30.472Z,6.30
2018-07-23T18:49:22.677Z,5.93
2018-07-23T18:51:53.880Z,6.63
2018-07-23T18:54:25.125Z,6.50
2018-07-23T18:56:56.371Z,5.43
2018-07-23T18:59:26.524Z,7.03
2018-07-23T19:01:57.292Z,6.57
2018-07-23T19:04:27.268Z,6.10
2018-07-23T19:06:57.198Z,6.77
2018-07-23T19:09:28.512Z,6.00
2018-07-23T19:11:59.094Z,6.30
2018-07-23T19:14:29.154Z,6.20
2018-07-23T19:17:00.061Z,6.20
2018-07-23T19:19:30.576Z,6.23
2018-07-23T19:22:00.652Z,7.23
2018-07-23T19:24:30.736Z,6.37
2018-07-23T19:27:01.017Z,6.43
2018-07-23T19:29:36.006Z,6.10
2018-07-23T19:32:06.141Z,5.97
2018-07-23T19:34:36.246Z,6.20
2018-07-23T19:37:06.455Z,6.20
2018-07-23T19:39:36.911Z,6.27
2018-07-23T19:42:08.601Z,6.37
2018-07-23T19:44:38.656Z,6.37
2018-07-23T19:47:09.943Z,6.20
2018-07-23T19:49:40.111Z,6.80
2018-07-23T19:52:10.790Z,6.03
2018-07-23T19:54:49.927Z,6.53
2018-07-23T19:57:26.698Z,6.20
2018-07-23T19:59:57.794Z,6.13
2018-07-23T20:02:27.734Z,6.33
2018-07-23T20:04:57.746Z,5.93
2018-07-23T20:07:27.907Z,6.80
2018-07-23T20:10:11.345Z,5.90
2018-07-23T20:34:23.839Z,6.40
2018-07-23T20:37:19.232Z,6.80
2018-07-23T20:40:04.113Z,6.60
2018-07-23T20:42:35.689Z,6.47
2018-07-23T20:45:05.772Z,6.60
2018-07-23T20:47:36.667Z,6.50
2018-07-23T20:50:35.564Z,7.33
2018-07-23T20:53:11.031Z,6.13
2018-07-23T20:59:23.023Z,6.47
2018-07-23T21:01:56.916Z,6.80
2018-07-23T21:10:22.329Z,6.27
2018-07-23T21:12:52.643Z,7.07
2018-07-23T21:16:11.577Z,6.50
2018-07-23T21:19:08.222Z,6.47
2018-07-23T21:22:09.755Z,6.63
2018-07-23T21:24:48.320Z,6.37
2018-07-23T21:27:25.047Z,6.27
2018-07-23T21:29:57.163Z,7.03
2018-07-23T21:32:30.840Z,6.47
2018-07-23T21:35:03.150Z,5.93
2018-07-23T21:43:36.783Z,6.27
2018-07-23T21:46:12.107Z,6.10
2018-07-23T21:48:52.433Z,6.70
2018-07-23T21:51:42.251Z,6.73
2018-07-23T21:54:20.595Z,6.00
2018-07-23T21:56:51.912Z,6.20
2018-07-23T21:59:26.129Z,6.60
2018-07-23T22:01:57.497Z,6.23
2018-07-23T22:04:29.764Z,6.50
2018-07-23T22:07:00.636Z,6.40
2018-07-23T22:09:31.422Z,6.27
2018-07-23T22:12:11.901Z,6.60
2018-07-23T22:14:45.613Z,6.53
2018-07-23T22:17:16.964Z,6.43
2018-07-23T22:19:53.857Z,6.40
2018-07-23T22:22:24.907Z,6.50
2018-07-23T22:25:07.774Z,6.60
2018-07-23T22:27:52.563Z,6.00
2018-07-23T22:30:26.919Z,6.07
2018-07-23T22:33:11.775Z,6.03
2018-07-23T22:35:43.140Z,5.93
2018-07-23T22:41:07.020Z,5.97
2018-07-23T22:43:39.281Z,6.07
2018-07-23T22:46:17.548Z,6.17
2018-07-23T22:48:48.168Z,6.17
2018-07-23T22:51:25.096Z,6.20
2018-07-23T22:54:12.161Z,6.50
2018-07-23T22:56:43.642Z,6.00
2018-07-23T22:59:14.283Z,6.20
2018-07-23T23:01:44.746Z,6.37
2018-07-23T23:04:15.716Z,5.77
2018-07-23T23:06:46.208Z,6.50
2018-07-23T23:09:22.299Z,6.37
2018-07-23T23:11:53.067Z,6.23
2018-07-23T23:14:32.997Z,6.20
2018-07-23T23:17:04.887Z,6.17
2018-07-23T23:19:37.663Z,6.23
2018-07-23T23:22:08.619Z,5.80
2018-07-23T23:24:38.620Z,5.97
2018-07-23T23:27:11.034Z,6.13
2018-07-23T23:29:42.031Z,5.97
2018-07-23T23:32:15.660Z,6.00
2018-07-23T23:34:46.080Z,6.00
2018-07-23T23:38:28.639Z,6.13
2018-07-23T23:41:07.179Z,6.30
2018-07-23T23:43:37.558Z,6.30
2018-07-23T23:46:10.448Z,6.17
2018-07-23T23:48:40.701Z,6.27
2018-07-23T23:51:11.196Z,6.10
2018-07-23T23:53:41.293Z,6.43
2018-07-23T23:56:11.926Z,6.10
2018-07-23T23:58:49.201Z,6.27
